sensor_id;sensor_type;location;lat;lon;timestamp;P1;durP1;ratioP1;P2;durP2;ratioP2
68432;SDS011;55412;51.350;17.056;2022-09-09T00:00:25;6.30;;;3.08;;
68432;SDS011;55412;51.350;17.056;2022-09-09T00:08:56;6.07;;;2.60;;
68432;SDS011;55412;51.350;17.056;2022-09-09T00:14:32;6.32;;;2.40;;
68432;SDS011;55412;51.350;17.056;2022-09-09T00:17:01;5.83;;;2.67;;
68432;SDS011;55412;51.350;17.056;2022-09-09T00:19:47;6.10;;;2.95;;
68432;SDS011;55412;51.350;17.056;2022-09-09T00:22:58;6.13;;;3.33;;
68432;SDS011;55412;51.350;17.056;2022-09-09T00:25:37;5.82;;;2.78;;
68432;SDS011;55412;51.350;17.056;2022-09-09T00:28:25;5.80;;;2.70;;
68432;SDS011;55412;51.350;17.056;2022-09-09T00:30:56;6.23;;;2.73;;
68432;SDS011;55412;51.350;17.056;2022-09-09T00:33:36;6.53;;;3.28;;
68432;SDS011;55412;51.350;17.056;2022-09-09T00:36:07;8.93;;;3.92;;
68432;SDS011;55412;51.350;17.056;2022-09-09T00:38:42;8.20;;;3.67;;
68432;SDS011;55412;51.350;17.056;2022-09-09T00:41:51;6.93;;;3.08;;
68432;SDS011;55412;51.350;17.056;2022-09-09T00:44:35;8.37;;;3.10;;
68432;SDS011;55412;51.350;17.056;2022-09-09T00:55:33;5.78;;;2.80;;
68432;SDS011;55412;51.350;17.056;2022-09-09T00:58:13;7.00;;;2.47;;
68432;SDS011;55412;51.350;17.056;2022-09-09T01:01:12;6.53;;;2.90;;
68432;SDS011;55412;51.350;17.056;2022-09-09T01:03:49;4.45;;;1.90;;
68432;SDS011;55412;51.350;17.056;2022-09-09T01:14:40;5.65;;;2.33;;
68432;SDS011;55412;51.350;17.056;2022-09-09T01:17:20;4.82;;;2.03;;
68432;SDS011;55412;51.350;17.056;2022-09-09T01:28:44;4.00;;;1.58;;
68432;SDS011;55412;51.350;17.056;2022-09-09T01:31:18;5.22;;;1.92;;
68432;SDS011;55412;51.350;17.056;2022-09-09T01:33:56;3.58;;;1.45;;
68432;SDS011;55412;51.350;17.056;2022-09-09T01:38:58;5.17;;;1.20;;
68432;SDS011;55412;51.350;17.056;2022-09-09T01:41:24;4.32;;;1.20;;
68432;SDS011;55412;51.350;17.056;2022-09-09T01:43:50;4.53;;;1.52;;
68432;SDS011;55412;51.350;17.056;2022-09-09T01:46:18;7.22;;;1.90;;
68432;SDS011;55412;51.350;17.056;2022-09-09T01:48:48;5.57;;;1.60;;
68432;SDS011;55412;51.350;17.056;2022-09-09T01:51:16;5.13;;;1.50;;
68432;SDS011;55412;51.350;17.056;2022-09-09T01:53:42;4.50;;;1.60;;
68432;SDS011;55412;51.350;17.056;2022-09-09T01:56:20;3.50;;;1.30;;
68432;SDS011;55412;51.350;17.056;2022-09-09T01:59:24;5.05;;;1.85;;
68432;SDS011;55412;51.350;17.056;2022-09-09T02:08:08;2.80;;;0.88;;
68432;SDS011;55412;51.350;17.056;2022-09-09T02:10:49;3.75;;;1.38;;
68432;SDS011;55412;51.350;17.056;2022-09-09T02:13:46;4.00;;;1.30;;
68432;SDS011;55412;51.350;17.056;2022-09-09T02:16:17;4.30;;;1.50;;
68432;SDS011;55412;51.350;17.056;2022-09-09T02:19:32;3.73;;;1.30;;
68432;SDS011;55412;51.350;17.056;2022-09-09T02:22:04;5.95;;;1.00;;
68432;SDS011;55412;51.350;17.056;2022-09-09T02:24:31;2.95;;;1.27;;
68432;SDS011;55412;51.350;17.056;2022-09-09T02:27:00;6.70;;;1.48;;
68432;SDS011;55412;51.350;17.056;2022-09-09T02:29:32;5.68;;;1.30;;
68432;SDS011;55412;51.350;17.056;2022-09-09T02:32:03;4.87;;;0.97;;
68432;SDS011;55412;51.350;17.056;2022-09-09T02:34:35;3.17;;;1.08;;
68432;SDS011;55412;51.350;17.056;2022-09-09T02:37:11;7.50;;;1.40;;
68432;SDS011;55412;51.350;17.056;2022-09-09T02:39:40;4.15;;;1.15;;
68432;SDS011;55412;51.350;17.056;2022-09-09T02:42:06;4.40;;;1.20;;
68432;SDS011;55412;51.350;17.056;2022-09-09T02:44:33;3.10;;;0.70;;
68432;SDS011;55412;51.350;17.056;2022-09-09T02:55:48;4.93;;;1.50;;
68432;SDS011;55412;51.350;17.056;2022-09-09T02:58:31;3.47;;;1.20;;
68432;SDS011;55412;51.350;17.056;2022-09-09T03:00:57;3.92;;;1.40;;
68432;SDS011;55412;51.350;17.056;2022-09-09T03:03:26;4.97;;;1.70;;
68432;SDS011;55412;51.350;17.056;2022-09-09T03:05:52;4.85;;;1.48;;
68432;SDS011;55412;51.350;17.056;2022-09-09T03:08:18;4.35;;;1.63;;
68432;SDS011;55412;51.350;17.056;2022-09-09T03:10:44;5.10;;;1.37;;
68432;SDS011;55412;51.350;17.056;2022-09-09T03:13:10;3.03;;;1.05;;
68432;SDS011;55412;51.350;17.056;2022-09-09T03:15:38;3.08;;;1.35;;
68432;SDS011;55412;51.350;17.056;2022-09-09T03:18:03;3.45;;;1.25;;
68432;SDS011;55412;51.350;17.056;2022-09-09T03:20:30;3.97;;;1.48;;
68432;SDS011;55412;51.350;17.056;2022-09-09T03:22:56;4.50;;;1.30;;
68432;SDS011;55412;51.350;17.056;2022-09-09T03:25:23;3.53;;;1.70;;
68432;SDS011;55412;51.350;17.056;2022-09-09T03:27:49;4.38;;;1.30;;
68432;SDS011;55412;51.350;17.056;2022-09-09T03:30:19;4.40;;;1.30;;
68432;SDS011;55412;51.350;17.056;2022-09-09T03:32:48;5.15;;;1.33;;
68432;SDS011;55412;51.350;17.056;2022-09-09T03:35:14;4.17;;;2.10;;
68432;SDS011;55412;51.350;17.056;2022-09-09T03:37:41;4.55;;;1.70;;
68432;SDS011;55412;51.350;17.056;2022-09-09T03:40:07;5.63;;;2.17;;
68432;SDS011;55412;51.350;17.056;2022-09-09T03:42:35;4.30;;;1.95;;
68432;SDS011;55412;51.350;17.056;2022-09-09T03:45:03;7.97;;;2.00;;
68432;SDS011;55412;51.350;17.056;2022-09-09T03:47:31;6.77;;;2.13;;
68432;SDS011;55412;51.350;17.056;2022-09-09T03:49:58;6.05;;;1.80;;
68432;SDS011;55412;51.350;17.056;2022-09-09T03:52:24;4.93;;;1.48;;
68432;SDS011;55412;51.350;17.056;2022-09-09T03:54:51;3.42;;;1.40;;
68432;SDS011;55412;51.350;17.056;2022-09-09T03:57:19;8.13;;;2.40;;
68432;SDS011;55412;51.350;17.056;2022-09-09T03:59:45;3.87;;;1.60;;
68432;SDS011;55412;51.350;17.056;2022-09-09T04:02:11;5.57;;;2.28;;
68432;SDS011;55412;51.350;17.056;2022-09-09T04:04:37;9.85;;;2.13;;
68432;SDS011;55412;51.350;17.056;2022-09-09T04:07:03;5.85;;;2.30;;
68432;SDS011;55412;51.350;17.056;2022-09-09T04:09:32;6.82;;;2.17;;
68432;SDS011;55412;51.350;17.056;2022-09-09T04:11:59;4.00;;;1.90;;
68432;SDS011;55412;51.350;17.056;2022-09-09T04:14:26;4.70;;;1.77;;
68432;SDS011;55412;51.350;17.056;2022-09-09T04:16:54;4.50;;;1.40;;
68432;SDS011;55412;51.350;17.056;2022-09-09T04:19:22;3.28;;;1.40;;
68432;SDS011;55412;51.350;17.056;2022-09-09T04:21:48;5.25;;;1.67;;
68432;SDS011;55412;51.350;17.056;2022-09-09T04:24:16;4.80;;;1.90;;
68432;SDS011;55412;51.350;17.056;2022-09-09T04:26:43;5.78;;;2.22;;
68432;SDS011;55412;51.350;17.056;2022-09-09T04:29:10;6.05;;;2.25;;
68432;SDS011;55412;51.350;17.056;2022-09-09T04:31:36;4.75;;;1.80;;
68432;SDS011;55412;51.350;17.056;2022-09-09T04:34:07;5.50;;;1.50;;
68432;SDS011;55412;51.350;17.056;2022-09-09T04:36:34;3.40;;;1.40;;
68432;SDS011;55412;51.350;17.056;2022-09-09T04:39:00;8.27;;;1.67;;
68432;SDS011;55412;51.350;17.056;2022-09-09T04:41:27;3.60;;;1.33;;
68432;SDS011;55412;51.350;17.056;2022-09-09T04:43:53;4.10;;;1.88;;
68432;SDS011;55412;51.350;17.056;2022-09-09T04:46:20;3.53;;;1.33;;
68432;SDS011;55412;51.350;17.056;2022-09-09T04:48:48;7.30;;;1.60;;
68432;SDS011;55412;51.350;17.056;2022-09-09T04:51:15;3.83;;;1.80;;
68432;SDS011;55412;51.350;17.056;2022-09-09T04:53:41;5.13;;;1.00;;
68432;SDS011;55412;51.350;17.056;2022-09-09T04:56:08;6.35;;;2.15;;
68432;SDS011;55412;51.350;17.056;2022-09-09T04:58:39;5.28;;;1.95;;
68432;SDS011;55412;51.350;17.056;2022-09-09T05:01:14;4.77;;;2.37;;
68432;SDS011;55412;51.350;17.056;2022-09-09T05:03:46;6.80;;;1.80;;
68432;SDS011;55412;51.350;17.056;2022-09-09T05:06:16;5.05;;;2.35;;
68432;SDS011;55412;51.350;17.056;2022-09-09T05:08:45;6.90;;;2.70;;
68432;SDS011;55412;51.350;17.056;2022-09-09T05:13:44;6.20;;;2.23;;
68432;SDS011;55412;51.350;17.056;2022-09-09T05:16:11;7.88;;;2.67;;
68432;SDS011;55412;51.350;17.056;2022-09-09T05:18:39;5.18;;;2.20;;
68432;SDS011;55412;51.350;17.056;2022-09-09T05:21:06;6.13;;;3.05;;
68432;SDS011;55412;51.350;17.056;2022-09-09T05:23:35;5.55;;;2.17;;
68432;SDS011;55412;51.350;17.056;2022-09-09T05:26:02;7.57;;;2.80;;
68432;SDS011;55412;51.350;17.056;2022-09-09T05:28:29;5.07;;;2.05;;
68432;SDS011;55412;51.350;17.056;2022-09-09T05:30:59;7.40;;;2.22;;
68432;SDS011;55412;51.350;17.056;2022-09-09T05:33:30;5.13;;;1.73;;
68432;SDS011;55412;51.350;17.056;2022-09-09T05:35:58;5.43;;;1.60;;
68432;SDS011;55412;51.350;17.056;2022-09-09T05:38:30;8.53;;;1.33;;
68432;SDS011;55412;51.350;17.056;2022-09-09T05:40:58;6.65;;;2.13;;
68432;SDS011;55412;51.350;17.056;2022-09-09T05:43:25;3.83;;;1.30;;
68432;SDS011;55412;51.350;17.056;2022-09-09T05:45:59;3.65;;;1.13;;
68432;SDS011;55412;51.350;17.056;2022-09-09T05:48:33;5.18;;;1.27;;
68432;SDS011;55412;51.350;17.056;2022-09-09T05:51:02;6.87;;;1.73;;
68432;SDS011;55412;51.350;17.056;2022-09-09T05:53:31;5.25;;;1.73;;
68432;SDS011;55412;51.350;17.056;2022-09-09T05:56:06;5.28;;;1.45;;
68432;SDS011;55412;51.350;17.056;2022-09-09T05:58:41;6.65;;;1.80;;
68432;SDS011;55412;51.350;17.056;2022-09-09T06:01:25;4.65;;;1.58;;
68432;SDS011;55412;51.350;17.056;2022-09-09T06:03:53;4.17;;;1.60;;
68432;SDS011;55412;51.350;17.056;2022-09-09T06:06:21;3.78;;;1.50;;
68432;SDS011;55412;51.350;17.056;2022-09-09T06:09:02;2.95;;;1.10;;
68432;SDS011;55412;51.350;17.056;2022-09-09T06:11:35;4.00;;;1.67;;
68432;SDS011;55412;51.350;17.056;2022-09-09T06:14:03;4.57;;;1.20;;
68432;SDS011;55412;51.350;17.056;2022-09-09T06:16:31;3.63;;;1.60;;
68432;SDS011;55412;51.350;17.056;2022-09-09T06:18:59;3.28;;;1.30;;
68432;SDS011;55412;51.350;17.056;2022-09-09T06:21:26;7.35;;;1.98;;
68432;SDS011;55412;51.350;17.056;2022-09-09T06:23:58;4.07;;;1.27;;
68432;SDS011;55412;51.350;17.056;2022-09-09T06:26:34;4.78;;;1.27;;
68432;SDS011;55412;51.350;17.056;2022-09-09T06:29:07;3.47;;;1.40;;
68432;SDS011;55412;51.350;17.056;2022-09-09T06:31:35;2.72;;;1.00;;
68432;SDS011;55412;51.350;17.056;2022-09-09T06:34:04;3.90;;;1.20;;
68432;SDS011;55412;51.350;17.056;2022-09-09T06:36:33;3.97;;;0.93;;
68432;SDS011;55412;51.350;17.056;2022-09-09T06:39:02;5.80;;;0.98;;
68432;SDS011;55412;51.350;17.056;2022-09-09T06:41:30;2.73;;;0.67;;
68432;SDS011;55412;51.350;17.056;2022-09-09T06:43:58;5.60;;;1.02;;
68432;SDS011;55412;51.350;17.056;2022-09-09T06:46:25;3.92;;;0.82;;
68432;SDS011;55412;51.350;17.056;2022-09-09T06:48:57;6.18;;;1.85;;
68432;SDS011;55412;51.350;17.056;2022-09-09T06:51:25;3.70;;;1.15;;
68432;SDS011;55412;51.350;17.056;2022-09-09T06:53:57;3.13;;;1.07;;
68432;SDS011;55412;51.350;17.056;2022-09-09T06:56:29;4.90;;;0.90;;
68432;SDS011;55412;51.350;17.056;2022-09-09T06:58:58;3.92;;;0.90;;
68432;SDS011;55412;51.350;17.056;2022-09-09T07:01:32;3.65;;;1.20;;
68432;SDS011;55412;51.350;17.056;2022-09-09T07:04:01;3.25;;;1.30;;
68432;SDS011;55412;51.350;17.056;2022-09-09T07:06:33;3.73;;;0.97;;
68432;SDS011;55412;51.350;17.056;2022-09-09T07:09:05;4.43;;;1.20;;
68432;SDS011;55412;51.350;17.056;2022-09-09T07:11:38;3.53;;;1.00;;
68432;SDS011;55412;51.350;17.056;2022-09-09T07:14:07;3.47;;;0.50;;
68432;SDS011;55412;51.350;17.056;2022-09-09T07:16:34;3.20;;;0.70;;
68432;SDS011;55412;51.350;17.056;2022-09-09T07:19:02;3.67;;;0.80;;
68432;SDS011;55412;51.350;17.056;2022-09-09T07:21:30;4.40;;;1.10;;
68432;SDS011;55412;51.350;17.056;2022-09-09T07:23:58;5.88;;;1.50;;
68432;SDS011;55412;51.350;17.056;2022-09-09T07:26:26;3.55;;;0.82;;
68432;SDS011;55412;51.350;17.056;2022-09-09T07:28:55;3.30;;;0.82;;
68432;SDS011;55412;51.350;17.056;2022-09-09T07:31:35;2.80;;;0.90;;
68432;SDS011;55412;51.350;17.056;2022-09-09T07:34:04;3.72;;;0.77;;
68432;SDS011;55412;51.350;17.056;2022-09-09T07:36:32;2.75;;;0.80;;
68432;SDS011;55412;51.350;17.056;2022-09-09T07:39:05;6.18;;;1.23;;
68432;SDS011;55412;51.350;17.056;2022-09-09T07:41:42;5.90;;;0.93;;
68432;SDS011;55412;51.350;17.056;2022-09-09T07:44:11;4.20;;;0.53;;
68432;SDS011;55412;51.350;17.056;2022-09-09T07:46:43;4.82;;;0.90;;
68432;SDS011;55412;51.350;17.056;2022-09-09T07:49:10;3.50;;;1.10;;
68432;SDS011;55412;51.350;17.056;2022-09-09T07:51:38;5.15;;;0.65;;
68432;SDS011;55412;51.350;17.056;2022-09-09T07:54:07;8.30;;;1.08;;
68432;SDS011;55412;51.350;17.056;2022-09-09T07:56:36;4.30;;;1.10;;
68432;SDS011;55412;51.350;17.056;2022-09-09T07:59:04;4.22;;;0.93;;
68432;SDS011;55412;51.350;17.056;2022-09-09T08:01:41;3.88;;;1.08;;
68432;SDS011;55412;51.350;17.056;2022-09-09T08:04:11;3.50;;;0.52;;
68432;SDS011;55412;51.350;17.056;2022-09-09T08:06:44;5.88;;;1.15;;
68432;SDS011;55412;51.350;17.056;2022-09-09T08:09:17;5.10;;;0.90;;
68432;SDS011;55412;51.350;17.056;2022-09-09T08:11:43;3.50;;;0.90;;
68432;SDS011;55412;51.350;17.056;2022-09-09T08:14:10;4.75;;;1.40;;
68432;SDS011;55412;51.350;17.056;2022-09-09T08:16:38;2.83;;;0.60;;
68432;SDS011;55412;51.350;17.056;2022-09-09T08:19:07;3.92;;;1.30;;
68432;SDS011;55412;51.350;17.056;2022-09-09T08:21:35;5.77;;;1.20;;
68432;SDS011;55412;51.350;17.056;2022-09-09T08:24:04;4.28;;;1.23;;
68432;SDS011;55412;51.350;17.056;2022-09-09T08:26:33;6.13;;;1.40;;
68432;SDS011;55412;51.350;17.056;2022-09-09T08:29:03;3.10;;;1.00;;
68432;SDS011;55412;51.350;17.056;2022-09-09T08:31:35;4.78;;;0.73;;
68432;SDS011;55412;51.350;17.056;2022-09-09T08:34:14;6.07;;;0.90;;
68432;SDS011;55412;51.350;17.056;2022-09-09T08:36:41;2.90;;;1.13;;
68432;SDS011;55412;51.350;17.056;2022-09-09T08:39:10;2.97;;;1.27;;
68432;SDS011;55412;51.350;17.056;2022-09-09T08:55:47;2.88;;;0.70;;
68432;SDS011;55412;51.350;17.056;2022-09-09T08:58:25;6.82;;;1.40;;
68432;SDS011;55412;51.350;17.056;2022-09-09T09:04:02;3.22;;;0.60;;
68432;SDS011;55412;51.350;17.056;2022-09-09T09:07:06;4.07;;;0.65;;
68432;SDS011;55412;51.350;17.056;2022-09-09T09:10:32;2.35;;;0.50;;
68432;SDS011;55412;51.350;17.056;2022-09-09T09:13:17;3.97;;;0.68;;
68432;SDS011;55412;51.350;17.056;2022-09-09T09:15:54;3.37;;;1.03;;
68432;SDS011;55412;51.350;17.056;2022-09-09T09:18:27;3.50;;;0.80;;
68432;SDS011;55412;51.350;17.056;2022-09-09T09:21:05;2.85;;;0.65;;
68432;SDS011;55412;51.350;17.056;2022-09-09T09:23:49;4.50;;;1.02;;
68432;SDS011;55412;51.350;17.056;2022-09-09T09:26:29;3.80;;;0.57;;
68432;SDS011;55412;51.350;17.056;2022-09-09T09:29:00;5.63;;;0.90;;
68432;SDS011;55412;51.350;17.056;2022-09-09T09:31:37;5.50;;;1.05;;
68432;SDS011;55412;51.350;17.056;2022-09-09T09:34:03;4.25;;;0.75;;
68432;SDS011;55412;51.350;17.056;2022-09-09T09:36:39;5.53;;;1.02;;
68432;SDS011;55412;51.350;17.056;2022-09-09T09:39:26;2.95;;;0.75;;
68432;SDS011;55412;51.350;17.056;2022-09-09T09:42:09;4.57;;;0.73;;
68432;SDS011;55412;51.350;17.056;2022-09-09T09:44:39;4.07;;;1.00;;
68432;SDS011;55412;51.350;17.056;2022-09-09T09:49:39;3.50;;;0.60;;
68432;SDS011;55412;51.350;17.056;2022-09-09T09:52:24;3.75;;;0.95;;
68432;SDS011;55412;51.350;17.056;2022-09-09T09:54:53;3.00;;;0.77;;
68432;SDS011;55412;51.350;17.056;2022-09-09T09:57:26;2.72;;;0.63;;
68432;SDS011;55412;51.350;17.056;2022-09-09T10:00:11;3.28;;;0.70;;
68432;SDS011;55412;51.350;17.056;2022-09-09T10:02:42;3.92;;;0.80;;
68432;SDS011;55412;51.350;17.056;2022-09-09T10:05:17;5.90;;;1.00;;
68432;SDS011;55412;51.350;17.056;2022-09-09T10:07:46;3.87;;;0.70;;
68432;SDS011;55412;51.350;17.056;2022-09-09T10:19:11;3.33;;;0.50;;
68432;SDS011;55412;51.350;17.056;2022-09-09T10:21:54;5.20;;;0.80;;
68432;SDS011;55412;51.350;17.056;2022-09-09T10:25:04;3.47;;;0.70;;
68432;SDS011;55412;51.350;17.056;2022-09-09T10:34:09;3.75;;;0.50;;
68432;SDS011;55412;51.350;17.056;2022-09-09T10:36:58;4.37;;;1.03;;
68432;SDS011;55412;51.350;17.056;2022-09-09T10:39:33;3.72;;;1.42;;
68432;SDS011;55412;51.350;17.056;2022-09-09T10:42:09;3.40;;;0.82;;
68432;SDS011;55412;51.350;17.056;2022-09-09T10:44:58;4.22;;;0.73;;
68432;SDS011;55412;51.350;17.056;2022-09-09T10:50:34;4.07;;;0.70;;
68432;SDS011;55412;51.350;17.056;2022-09-09T10:53:28;3.33;;;0.63;;
68432;SDS011;55412;51.350;17.056;2022-09-09T10:56:32;3.05;;;0.60;;
68432;SDS011;55412;51.350;17.056;2022-09-09T10:59:14;4.85;;;1.08;;
68432;SDS011;55412;51.350;17.056;2022-09-09T11:01:59;6.28;;;0.47;;
68432;SDS011;55412;51.350;17.056;2022-09-09T11:04:45;3.83;;;0.53;;
68432;SDS011;55412;51.350;17.056;2022-09-09T11:07:39;3.40;;;0.70;;
68432;SDS011;55412;51.350;17.056;2022-09-09T11:10:18;10.07;;;0.93;;
68432;SDS011;55412;51.350;17.056;2022-09-09T11:12:54;3.78;;;0.70;;
68432;SDS011;55412;51.350;17.056;2022-09-09T11:15:41;4.13;;;0.63;;
68432;SDS011;55412;51.350;17.056;2022-09-09T11:18:16;6.10;;;0.80;;
68432;SDS011;55412;51.350;17.056;2022-09-09T11:20:54;4.10;;;1.05;;
68432;SDS011;55412;51.350;17.056;2022-09-09T11:23:27;4.10;;;0.40;;
68432;SDS011;55412;51.350;17.056;2022-09-09T11:26:06;2.22;;;0.40;;
68432;SDS011;55412;51.350;17.056;2022-09-09T11:28:47;3.97;;;0.60;;
68432;SDS011;55412;51.350;17.056;2022-09-09T11:38:27;2.90;;;0.40;;
68432;SDS011;55412;51.350;17.056;2022-09-09T11:41:04;4.15;;;0.50;;
68432;SDS011;55412;51.350;17.056;2022-09-09T11:43:46;4.55;;;0.55;;
68432;SDS011;55412;51.350;17.056;2022-09-09T11:46:17;4.07;;;0.57;;
68432;SDS011;55412;51.350;17.056;2022-09-09T11:49:02;3.35;;;0.43;;
68432;SDS011;55412;51.350;17.056;2022-09-09T11:51:32;4.25;;;0.55;;
68432;SDS011;55412;51.350;17.056;2022-09-09T11:54:44;4.70;;;0.30;;
68432;SDS011;55412;51.350;17.056;2022-09-09T11:56:57;2.72;;;0.40;;
68432;SDS011;55412;51.350;17.056;2022-09-09T11:59:30;3.00;;;0.50;;
68432;SDS011;55412;51.350;17.056;2022-09-09T12:04:46;4.78;;;0.70;;
68432;SDS011;55412;51.350;17.056;2022-09-09T12:12:35;1.90;;;0.30;;
68432;SDS011;55412;51.350;17.056;2022-09-09T12:17:50;2.47;;;0.47;;
68432;SDS011;55412;51.350;17.056;2022-09-09T12:25:59;4.50;;;0.50;;
68432;SDS011;55412;51.350;17.056;2022-09-09T12:29:14;3.33;;;0.55;;
68432;SDS011;55412;51.350;17.056;2022-09-09T12:35:04;5.00;;;0.82;;
68432;SDS011;55412;51.350;17.056;2022-09-09T12:37:38;3.50;;;0.57;;
68432;SDS011;55412;51.350;17.056;2022-09-09T12:42:50;3.92;;;0.40;;
68432;SDS011;55412;51.350;17.056;2022-09-09T12:45:18;4.72;;;0.60;;
68432;SDS011;55412;51.350;17.056;2022-09-09T12:50:28;4.65;;;0.50;;
68432;SDS011;55412;51.350;17.056;2022-09-09T12:53:15;3.60;;;0.40;;
68432;SDS011;55412;51.350;17.056;2022-09-09T12:58:32;4.93;;;0.60;;
68432;SDS011;55412;51.350;17.056;2022-09-09T13:01:00;8.63;;;0.70;;
68432;SDS011;55412;51.350;17.056;2022-09-09T13:03:31;5.88;;;0.82;;
68432;SDS011;55412;51.350;17.056;2022-09-09T13:06:09;5.93;;;0.50;;
68432;SDS011;55412;51.350;17.056;2022-09-09T13:08:48;3.42;;;0.45;;
68432;SDS011;55412;51.350;17.056;2022-09-09T13:11:26;2.42;;;0.60;;
68432;SDS011;55412;51.350;17.056;2022-09-09T13:14:39;6.22;;;0.82;;
68432;SDS011;55412;51.350;17.056;2022-09-09T13:17:17;3.40;;;0.30;;
68432;SDS011;55412;51.350;17.056;2022-09-09T13:19:49;1.63;;;0.20;;
68432;SDS011;55412;51.350;17.056;2022-09-09T13:22:30;4.40;;;0.40;;
68432;SDS011;55412;51.350;17.056;2022-09-09T13:25:06;4.65;;;0.40;;
68432;SDS011;55412;51.350;17.056;2022-09-09T13:27:36;4.45;;;1.10;;
68432;SDS011;55412;51.350;17.056;2022-09-09T13:36:26;2.72;;;0.57;;
68432;SDS011;55412;51.350;17.056;2022-09-09T13:38:36;4.47;;;0.60;;
68432;SDS011;55412;51.350;17.056;2022-09-09T13:41:24;3.95;;;0.40;;
68432;SDS011;55412;51.350;17.056;2022-09-09T13:44:01;3.17;;;0.50;;
68432;SDS011;55412;51.350;17.056;2022-09-09T13:51:38;7.53;;;0.47;;
68432;SDS011;55412;51.350;17.056;2022-09-09T13:54:14;4.10;;;0.45;;
68432;SDS011;55412;51.350;17.056;2022-09-09T13:56:43;3.97;;;0.60;;
68432;SDS011;55412;51.350;17.056;2022-09-09T13:59:11;5.60;;;0.40;;
68432;SDS011;55412;51.350;17.056;2022-09-09T14:01:44;3.70;;;0.50;;
68432;SDS011;55412;51.350;17.056;2022-09-09T14:04:11;3.22;;;0.32;;
68432;SDS011;55412;51.350;17.056;2022-09-09T14:06:37;1.88;;;0.20;;
68432;SDS011;55412;51.350;17.056;2022-09-09T14:09:05;3.85;;;0.35;;
68432;SDS011;55412;51.350;17.056;2022-09-09T14:11:33;3.13;;;1.17;;
68432;SDS011;55412;51.350;17.056;2022-09-09T14:13:59;2.38;;;0.30;;
68432;SDS011;55412;51.350;17.056;2022-09-09T14:16:26;3.53;;;0.50;;
68432;SDS011;55412;51.350;17.056;2022-09-09T14:18:52;3.28;;;0.50;;
68432;SDS011;55412;51.350;17.056;2022-09-09T14:21:21;2.30;;;0.40;;
68432;SDS011;55412;51.350;17.056;2022-09-09T14:23:48;1.57;;;0.30;;
68432;SDS011;55412;51.350;17.056;2022-09-09T14:26:14;1.95;;;0.22;;
68432;SDS011;55412;51.350;17.056;2022-09-09T14:28:40;2.55;;;0.50;;
68432;SDS011;55412;51.350;17.056;2022-09-09T14:31:06;3.60;;;0.55;;
68432;SDS011;55412;51.350;17.056;2022-09-09T14:33:33;3.58;;;0.20;;
68432;SDS011;55412;51.350;17.056;2022-09-09T14:36:01;2.00;;;0.30;;
68432;SDS011;55412;51.350;17.056;2022-09-09T14:38:29;2.40;;;0.32;;
68432;SDS011;55412;51.350;17.056;2022-09-09T14:40:58;1.67;;;0.20;;
68432;SDS011;55412;51.350;17.056;2022-09-09T14:43:28;2.42;;;0.40;;
68432;SDS011;55412;51.350;17.056;2022-09-09T14:45:56;6.63;;;0.47;;
68432;SDS011;55412;51.350;17.056;2022-09-09T14:48:22;4.97;;;0.50;;
68432;SDS011;55412;51.350;17.056;2022-09-09T14:50:48;3.70;;;0.50;;
68432;SDS011;55412;51.350;17.056;2022-09-09T14:53:14;2.22;;;0.40;;
68432;SDS011;55412;51.350;17.056;2022-09-09T14:55:42;3.33;;;0.45;;
68432;SDS011;55412;51.350;17.056;2022-09-09T14:58:08;3.90;;;0.30;;
68432;SDS011;55412;51.350;17.056;2022-09-09T15:00:34;2.07;;;0.40;;
68432;SDS011;55412;51.350;17.056;2022-09-09T15:03:00;2.97;;;0.60;;
68432;SDS011;55412;51.350;17.056;2022-09-09T15:05:26;4.63;;;0.38;;
68432;SDS011;55412;51.350;17.056;2022-09-09T15:07:53;6.78;;;0.63;;
68432;SDS011;55412;51.350;17.056;2022-09-09T15:10:19;2.60;;;0.43;;
68432;SDS011;55412;51.350;17.056;2022-09-09T15:12:46;2.08;;;0.50;;
68432;SDS011;55412;51.350;17.056;2022-09-09T15:15:12;2.92;;;0.70;;
68432;SDS011;55412;51.350;17.056;2022-09-09T15:17:38;3.35;;;0.90;;
68432;SDS011;55412;51.350;17.056;2022-09-09T15:20:04;4.75;;;0.90;;
68432;SDS011;55412;51.350;17.056;2022-09-09T15:22:31;5.43;;;0.40;;
68432;SDS011;55412;51.350;17.056;2022-09-09T15:24:58;3.15;;;0.35;;
68432;SDS011;55412;51.350;17.056;2022-09-09T15:27:25;3.10;;;0.60;;
68432;SDS011;55412;51.350;17.056;2022-09-09T15:29:50;2.10;;;0.38;;
68432;SDS011;55412;51.350;17.056;2022-09-09T15:32:17;4.10;;;0.80;;
68432;SDS011;55412;51.350;17.056;2022-09-09T15:34:43;4.17;;;1.27;;
68432;SDS011;55412;51.350;17.056;2022-09-09T15:37:10;3.78;;;0.68;;
68432;SDS011;55412;51.350;17.056;2022-09-09T15:39:38;2.33;;;0.60;;
68432;SDS011;55412;51.350;17.056;2022-09-09T15:42:05;4.00;;;0.68;;
68432;SDS011;55412;51.350;17.056;2022-09-09T15:44:40;4.70;;;1.15;;
68432;SDS011;55412;51.350;17.056;2022-09-09T15:47:07;2.97;;;0.60;;
68432;SDS011;55412;51.350;17.056;2022-09-09T15:49:37;5.18;;;0.70;;
68432;SDS011;55412;51.350;17.056;2022-09-09T15:52:03;3.72;;;0.73;;
68432;SDS011;55412;51.350;17.056;2022-09-09T15:54:31;2.95;;;0.65;;
68432;SDS011;55412;51.350;17.056;2022-09-09T15:57:01;4.05;;;0.88;;
68432;SDS011;55412;51.350;17.056;2022-09-09T15:59:29;3.80;;;0.67;;
68432;SDS011;55412;51.350;17.056;2022-09-09T16:01:57;6.07;;;1.65;;
68432;SDS011;55412;51.350;17.056;2022-09-09T16:04:25;5.65;;;1.10;;
68432;SDS011;55412;51.350;17.056;2022-09-09T16:06:57;6.95;;;1.23;;
68432;SDS011;55412;51.350;17.056;2022-09-09T16:09:28;3.08;;;0.80;;
68432;SDS011;55412;51.350;17.056;2022-09-09T16:11:59;5.07;;;0.80;;
68432;SDS011;55412;51.350;17.056;2022-09-09T16:14:27;3.55;;;0.93;;
68432;SDS011;55412;51.350;17.056;2022-09-09T16:16:59;5.55;;;0.95;;
68432;SDS011;55412;51.350;17.056;2022-09-09T16:19:26;4.18;;;0.93;;
68432;SDS011;55412;51.350;17.056;2022-09-09T16:21:52;4.43;;;0.90;;
68432;SDS011;55412;51.350;17.056;2022-09-09T16:24:18;4.33;;;0.70;;
68432;SDS011;55412;51.350;17.056;2022-09-09T16:26:46;3.65;;;0.80;;
68432;SDS011;55412;51.350;17.056;2022-09-09T16:29:15;7.13;;;1.08;;
68432;SDS011;55412;51.350;17.056;2022-09-09T16:31:43;5.82;;;1.13;;
68432;SDS011;55412;51.350;17.056;2022-09-09T16:34:12;2.72;;;0.73;;
68432;SDS011;55412;51.350;17.056;2022-09-09T16:36:39;4.60;;;1.00;;
68432;SDS011;55412;51.350;17.056;2022-09-09T16:39:08;3.70;;;0.90;;
68432;SDS011;55412;51.350;17.056;2022-09-09T16:41:43;4.32;;;1.40;;
68432;SDS011;55412;51.350;17.056;2022-09-09T16:44:10;6.43;;;1.55;;
68432;SDS011;55412;51.350;17.056;2022-09-09T16:46:38;7.03;;;1.52;;
68432;SDS011;55412;51.350;17.056;2022-09-09T16:49:08;6.87;;;1.63;;
68432;SDS011;55412;51.350;17.056;2022-09-09T16:51:38;6.53;;;1.63;;
68432;SDS011;55412;51.350;17.056;2022-09-09T16:54:13;7.45;;;2.20;;
68432;SDS011;55412;51.350;17.056;2022-09-09T16:56:41;7.78;;;2.13;;
68432;SDS011;55412;51.350;17.056;2022-09-09T16:59:14;6.18;;;2.03;;
68432;SDS011;55412;51.350;17.056;2022-09-09T17:01:45;7.90;;;3.17;;
68432;SDS011;55412;51.350;17.056;2022-09-09T17:04:21;7.15;;;1.90;;
68432;SDS011;55412;51.350;17.056;2022-09-09T17:06:52;5.40;;;1.73;;
68432;SDS011;55412;51.350;17.056;2022-09-09T17:09:19;8.18;;;1.08;;
68432;SDS011;55412;51.350;17.056;2022-09-09T17:11:47;5.57;;;1.80;;
68432;SDS011;55412;51.350;17.056;2022-09-09T17:14:17;4.07;;;0.90;;
68432;SDS011;55412;51.350;17.056;2022-09-09T17:16:45;5.93;;;1.27;;
68432;SDS011;55412;51.350;17.056;2022-09-09T17:19:12;4.40;;;1.27;;
68432;SDS011;55412;51.350;17.056;2022-09-09T17:21:38;3.42;;;1.10;;